Informes METAR cercanos


LEVC - Manises, Valencia, ESPAÑA
Distance from station: NNE 72km
Actualización: 22/02/2020 07:00
Despejado
Despejado
 Viento del varies
Viento: varies 2 km/h
Temperatura: 5°C
Rocío: 3°C
Humedad: 87%
Barómetro: 1030 hPa
Resumen: Despejado
Visibility: Mas de 10 km
2020/02/22 06:00 LEVC 220600Z VRB01KT CAVOK 05/03 Q1030 NOSIG
LEAL - El Altet, Alicante, ESPAÑA
Distance from station: S 70km
Actualización: 22/02/2020 07:00
Despejado
Despejado
 Viento del O
Viento: O 9 km/h
Temperatura: 5°C
Sensacion frio: 3°C
Rocío: 5°C
Humedad: 100%
Barómetro: 1031 hPa
Resumen: Despejado
Visibility: Mas de 10 km
2020/02/22 06:00 LEAL 220600Z 28005KT CAVOK 05/05 Q1031 NOSIG
 
LELC - San Javier, Murcia, ESPAÑA
Distance from station: SSO 188km
Actualización: 22/02/2020 07:00
Despejado
Despejado
 Viento del O
Viento: O 6 km/h
Temperatura: 5°C
Rocío: 5°C
Humedad: 100%
Barómetro: 1031 hPa
Resumen: Despejado
Visibility: Mas de 10 km
2020/02/22 06:00 LELC 220600Z 27003KT CAVOK 05/05 Q1031 NOSIG
LEAB - Los Llanos, Albacete, ESPAÑA
Distance from station: O 143km
Actualización: 22/02/2020 07:00
Despejado
Despejado
 Viento del calm
Viento: Calma
Temperatura: -2°C
Rocío: -2°C
Humedad: 100%
Barómetro: 1031 hPa
Resumen: Despejado
Visibility: Mas de 10 km
2020/02/22 06:00 LEAB 220600Z 00000KT CAVOK M02/M02 Q1031 NOSIG